Time;durP1;ratioP1;P1;durP2;ratioP2;P2;SDS_P1;SDS_P2;PMS_P1;PMS_P2;Temp;Humidity;BMP_temperature;BMP_pressure;BME280_temperature;BME280_humidity;BME280_pressure;Samples;Min_cycle;Max_cycle;Signal;HPM_P1;HPM_P2
2022/10/21 00:00:54;;;;;;;15.35;5.85;;;16.50;77.00;;;;;;5052909;28;20485;-66
2022/10/21 00:03:21;;;;;;;8.85;5.97;;;16.50;77.00;;;;;;5052820;28;20069;-66
2022/10/21 00:05:47;;;;;;;11.20;5.95;;;16.40;77.00;;;;;;5052719;28;20044;-66
2022/10/21 00:08:13;;;;;;;8.57;5.38;;;16.40;77.00;;;;;;5056231;28;20033;-66
2022/10/21 00:10:39;;;;;;;7.72;5.68;;;16.40;77.10;;;;;;5059521;28;20482;-66
2022/10/21 00:13:05;;;;;;;9.40;5.55;;;16.40;77.10;;;;;;5059310;28;20082;-66
2022/10/21 00:15:31;;;;;;;9.25;5.93;;;16.30;76.90;;;;;;5059330;28;20461;-66
2022/10/21 00:17:56;;;;;;;14.68;6.22;;;16.30;77.00;;;;;;5059275;28;20120;-66
2022/10/21 00:20:22;;;;;;;12.40;6.30;;;16.30;77.20;;;;;;5059468;28;20167;-66
2022/10/21 00:22:48;;;;;;;13.00;6.20;;;16.30;77.60;;;;;;5059592;28;20109;-66
2022/10/21 00:25:13;;;;;;;8.90;5.97;;;16.40;77.70;;;;;;5059406;28;20485;-66
2022/10/21 00:27:39;;;;;;;13.38;6.65;;;16.30;77.90;;;;;;5058911;28;20472;-66
2022/10/21 00:30:06;;;;;;;7.25;5.60;;;16.40;78.00;;;;;;5059687;28;20040;-66
2022/10/21 00:32:32;;;;;;;11.57;6.07;;;16.40;77.80;;;;;;5059327;28;20116;-67
2022/10/21 00:34:58;;;;;;;14.10;6.28;;;16.30;77.50;;;;;;5059455;28;20131;-66
2022/10/21 00:37:24;;;;;;;10.18;5.90;;;16.40;77.60;;;;;;5059270;28;20520;-66
2022/10/21 00:39:51;;;;;;;9.20;6.00;;;16.40;77.70;;;;;;5059349;28;20073;-66
2022/10/21 00:42:21;;;;;;;11.40;6.82;;;16.40;77.70;;;;;;5059031;28;20154;-66
2022/10/21 00:45:05;;;;;;;9.35;6.82;;;16.40;77.70;;;;;;5059162;28;20086;-66
2022/10/21 00:47:41;;;;;;;13.93;6.40;;;16.30;77.70;;;;;;5059038;28;20064;-66
2022/10/21 00:50:36;;;;;;;14.73;6.95;;;16.30;78.10;;;;;;5059074;28;20501;-66
2022/10/21 00:53:06;;;;;;;10.40;6.43;;;16.30;78.10;;;;;;5051794;28;20079;-67
2022/10/21 00:55:35;;;;;;;9.48;6.07;;;16.30;78.10;;;;;;5059210;28;20493;-66
2022/10/21 00:58:02;;;;;;;10.93;6.72;;;16.30;78.10;;;;;;5057662;28;20385;-66
2022/10/21 01:00:28;;;;;;;12.00;6.63;;;16.30;78.20;;;;;;5056074;28;20464;-66
2022/10/21 01:02:54;;;;;;;11.88;6.78;;;16.30;78.30;;;;;;5056102;28;20421;-66
2022/10/21 01:05:21;;;;;;;10.38;6.03;;;16.30;79.00;;;;;;5057683;28;20220;-66
2022/10/21 01:07:47;;;;;;;9.13;6.25;;;16.30;79.50;;;;;;5058737;28;20025;-66
2022/10/21 01:10:14;;;;;;;12.60;6.63;;;16.20;79.40;;;;;;5058959;28;20033;-66
2022/10/21 01:13:00;;;;;;;11.38;6.30;;;16.20;79.50;;;;;;5058886;28;20099;-66
2022/10/21 01:15:43;;;;;;;12.38;6.60;;;16.20;79.50;;;;;;5058833;28;20041;-66
2022/10/21 01:18:25;;;;;;;12.30;6.72;;;16.20;79.60;;;;;;5058905;28;20469;-66
2022/10/21 01:21:02;;;;;;;10.02;5.90;;;16.20;80.10;;;;;;5054868;28;20037;-66
2022/10/21 01:23:58;;;;;;;13.68;6.93;;;16.20;80.40;;;;;;5055590;28;20072;-66
2022/10/21 01:26:27;;;;;;;13.27;6.43;;;16.20;80.20;;;;;;5055714;28;20052;-66
2022/10/21 01:28:58;;;;;;;12.10;6.82;;;16.20;79.80;;;;;;5055466;28;20182;-66
2022/10/21 01:31:46;;;;;;;18.60;6.32;;;16.20;79.50;;;;;;5055431;28;20406;-67
2022/10/21 01:34:40;;;;;;;11.63;5.88;;;16.20;79.50;;;;;;5055448;28;20485;-66
2022/10/21 01:37:17;;;;;;;8.43;5.90;;;16.20;78.90;;;;;;5055163;28;20095;-66
2022/10/21 01:40:36;;;;;;;10.75;6.10;;;16.20;78.60;;;;;;5054999;28;20106;-66
2022/10/21 01:43:13;;;;;;;8.48;6.00;;;16.10;78.50;;;;;;5021858;28;20033;-66
2022/10/21 01:45:49;;;;;;;10.80;5.70;;;16.10;79.20;;;;;;5055538;28;20367;-66
2022/10/21 01:48:26;;;;;;;13.85;6.13;;;16.10;79.70;;;;;;5055369;28;20526;-66
2022/10/21 01:51:01;;;;;;;13.88;6.28;;;16.10;79.10;;;;;;5055159;28;20479;-66
2022/10/21 01:53:32;;;;;;;8.52;5.25;;;16.00;79.20;;;;;;5055046;28;20128;-66
2022/10/21 01:56:00;;;;;;;7.13;5.15;;;16.10;79.20;;;;;;5055420;28;20555;-66
2022/10/21 01:58:32;;;;;;;13.95;6.00;;;16.10;79.50;;;;;;5055044;28;20040;-66
2022/10/21 02:01:01;;;;;;;16.23;5.97;;;16.10;79.40;;;;;;5054657;28;20420;-66
2022/10/21 02:03:31;;;;;;;9.85;5.72;;;16.10;79.10;;;;;;5054790;28;20401;-67
2022/10/21 02:05:57;;;;;;;8.95;6.10;;;16.00;78.90;;;;;;5054863;28;20037;-66
2022/10/21 02:08:23;;;;;;;11.18;5.75;;;16.00;79.00;;;;;;5055008;28;20121;-66
2022/10/21 02:10:54;;;;;;;9.00;5.78;;;16.00;79.00;;;;;;5054888;28;20108;-66
2022/10/21 02:13:25;;;;;;;11.20;6.63;;;15.90;79.10;;;;;;5054566;28;20037;-65
2022/10/21 02:15:58;;;;;;;12.43;6.70;;;15.90;79.30;;;;;;5054848;28;20033;-66
2022/10/21 02:18:25;;;;;;;15.73;6.70;;;15.90;79.70;;;;;;5054589;28;20040;-66
2022/10/21 02:20:55;;;;;;;11.05;5.40;;;15.90;79.80;;;;;;5054796;28;20037;-66
2022/10/21 02:23:45;;;;;;;11.88;6.07;;;15.90;80.00;;;;;;5054683;28;20037;-66
2022/10/21 02:26:10;;;;;;;11.68;6.05;;;15.80;80.30;;;;;;5053625;28;20394;-66
2022/10/21 02:28:37;;;;;;;13.00;5.50;;;15.80;80.40;;;;;;5054397;28;20033;-66
2022/10/21 02:31:17;;;;;;;11.32;5.75;;;15.80;80.50;;;;;;5054486;28;20492;-66
2022/10/21 02:34:06;;;;;;;14.27;6.03;;;15.80;81.50;;;;;;5054495;28;20049;-67
2022/10/21 02:36:51;;;;;;;12.13;6.28;;;15.80;81.20;;;;;;5054206;28;20040;-66
2022/10/21 02:39:29;;;;;;;9.88;5.75;;;15.90;80.70;;;;;;5054215;28;20037;-66
2022/10/21 02:41:59;;;;;;;17.83;5.75;;;15.80;80.50;;;;;;5054099;28;20045;-66
2022/10/21 02:44:25;;;;;;;10.13;6.13;;;15.90;80.60;;;;;;5054225;28;20124;-66
2022/10/21 02:46:51;;;;;;;13.95;5.57;;;15.90;80.50;;;;;;5054151;28;20068;-67
2022/10/21 02:49:16;;;;;;;16.58;6.38;;;15.90;80.30;;;;;;5054147;28;20508;-67
2022/10/21 02:51:44;;;;;;;14.48;5.93;;;15.90;80.30;;;;;;5054217;28;20045;-66
2022/10/21 02:54:09;;;;;;;11.85;5.97;;;15.90;80.50;;;;;;5054063;28;20120;-66
2022/10/21 02:56:35;;;;;;;16.55;6.40;;;15.90;80.40;;;;;;5053785;28;20120;-66
2022/10/21 02:59:01;;;;;;;9.50;5.93;;;15.90;80.60;;;;;;5053975;28;20451;-66
2022/10/21 03:01:26;;;;;;;11.07;5.50;;;15.90;80.60;;;;;;5053846;28;20414;-66
2022/10/21 03:03:52;;;;;;;16.67;5.53;;;15.90;80.50;;;;;;5053705;28;20044;-66
2022/10/21 03:06:18;;;;;;;9.93;5.53;;;15.90;80.60;;;;;;5053598;28;20044;-66
2022/10/21 03:08:43;;;;;;;12.27;5.95;;;15.90;80.50;;;;;;5053787;28;20040;-66
2022/10/21 03:11:09;;;;;;;8.65;5.50;;;15.90;80.40;;;;;;5053675;28;20057;-66
2022/10/21 03:13:35;;;;;;;11.95;5.70;;;15.90;80.40;;;;;;5053750;28;20410;-66
2022/10/21 03:16:00;;;;;;;12.68;6.05;;;15.90;80.40;;;;;;5053528;28;20478;-66
2022/10/21 03:18:26;;;;;;;9.02;5.57;;;15.90;80.40;;;;;;5053813;28;20098;-66
2022/10/21 03:20:52;;;;;;;9.15;5.20;;;15.90;80.60;;;;;;5053497;28;20445;-66
2022/10/21 03:23:18;;;;;;;11.30;5.78;;;15.90;80.70;;;;;;5053611;28;20504;-66
2022/10/21 03:25:44;;;;;;;15.30;6.20;;;15.90;81.20;;;;;;5053396;28;20066;-66
2022/10/21 03:28:10;;;;;;;10.45;5.63;;;15.90;81.30;;;;;;5053182;28;20470;-66
2022/10/21 03:30:36;;;;;;;9.27;5.88;;;15.90;81.10;;;;;;5053222;28;20043;-66
2022/10/21 03:33:01;;;;;;;8.68;5.60;;;15.90;81.00;;;;;;5053356;28;20029;-66
2022/10/21 03:35:27;;;;;;;10.85;5.40;;;15.90;81.00;;;;;;5053288;28;20115;-66
2022/10/21 03:37:53;;;;;;;11.50;5.35;;;15.90;81.00;;;;;;5053199;28;20064;-66
2022/10/21 03:40:19;;;;;;;9.57;5.47;;;15.90;80.80;;;;;;5053026;28;20450;-66
2022/10/21 03:42:44;;;;;;;9.55;6.18;;;15.90;80.50;;;;;;5052458;28;20436;-67
2022/10/21 03:45:10;;;;;;;10.13;5.80;;;15.80;80.40;;;;;;5053227;28;20029;-66
2022/10/21 03:47:36;;;;;;;15.45;6.00;;;15.80;80.70;;;;;;5053304;28;20037;-66
2022/10/21 03:50:02;;;;;;;10.05;6.10;;;15.80;80.90;;;;;;5053085;28;20091;-66
2022/10/21 03:52:28;;;;;;;16.50;5.80;;;15.80;80.90;;;;;;5052994;28;20532;-66
2022/10/21 03:54:53;;;;;;;8.68;5.60;;;15.80;80.90;;;;;;5052904;28;20076;-66
2022/10/21 03:57:19;;;;;;;13.63;6.72;;;15.80;81.10;;;;;;5053080;28;20063;-66
2022/10/21 03:59:44;;;;;;;9.45;5.63;;;15.80;81.20;;;;;;5052871;28;20397;-66
2022/10/21 04:02:10;;;;;;;10.75;6.15;;;15.70;81.70;;;;;;5052701;28;20501;-66
2022/10/21 04:04:36;;;;;;;10.43;6.30;;;15.80;81.90;;;;;;5052486;28;20343;-66
2022/10/21 04:07:02;;;;;;;10.18;5.78;;;15.70;82.00;;;;;;5052960;28;20048;-66
2022/10/21 04:09:27;;;;;;;11.45;5.82;;;15.80;82.50;;;;;;5052983;28;20041;-66
2022/10/21 04:11:53;;;;;;;12.77;6.20;;;15.70;82.60;;;;;;5052900;28;20033;-66
2022/10/21 04:14:19;;;;;;;9.70;5.57;;;15.80;82.60;;;;;;5052686;28;20394;-66
2022/10/21 04:16:44;;;;;;;6.95;5.50;;;15.80;82.40;;;;;;5052876;28;20041;-66
2022/10/21 04:19:17;;;;;;;12.20;6.20;;;15.90;82.40;;;;;;5052600;28;20052;-66
2022/10/21 04:21:43;;;;;;;11.30;5.80;;;15.90;82.40;;;;;;5052996;28;20033;-66
2022/10/21 04:24:08;;;;;;;11.65;6.30;;;15.90;82.40;;;;;;5052766;28;20047;-66
2022/10/21 04:26:34;;;;;;;9.50;6.18;;;15.90;82.50;;;;;;5052468;28;20037;-67
2022/10/21 04:28:59;;;;;;;8.18;5.95;;;15.90;82.40;;;;;;5052814;28;20149;-66
2022/10/21 04:31:25;;;;;;;11.75;5.97;;;16.00;82.20;;;;;;5052671;28;20029;-66
2022/10/21 04:33:51;;;;;;;11.45;6.43;;;16.00;82.40;;;;;;5052885;28;20033;-66
2022/10/21 04:36:17;;;;;;;12.40;6.13;;;15.90;82.40;;;;;;5052676;28;20040;-66
2022/10/21 04:38:43;;;;;;;11.82;5.95;;;15.90;82.80;;;;;;5052650;28;20509;-66
2022/10/21 04:41:09;;;;;;;9.38;6.43;;;15.90;82.80;;;;;;5052649;28;20083;-66
2022/10/21 04:43:36;;;;;;;9.27;6.10;;;15.90;82.60;;;;;;5050493;28;20037;-66
2022/10/21 04:46:02;;;;;;;17.40;6.60;;;15.90;82.60;;;;;;5049579;28;20107;-66
2022/10/21 04:48:28;;;;;;;9.88;6.63;;;15.90;82.40;;;;;;5050841;28;20040;-66
2022/10/21 04:50:55;;;;;;;10.82;6.32;;;15.90;82.10;;;;;;5052566;28;20017;-66
2022/10/21 04:53:21;;;;;;;10.02;6.30;;;15.90;82.00;;;;;;5052546;28;20040;-66
2022/10/21 04:55:53;;;;;;;12.05;6.45;;;15.90;82.00;;;;;;5055191;28;20033;-66
2022/10/21 04:58:20;;;;;;;16.43;6.50;;;15.90;82.10;;;;;;5056173;28;20029;-66
2022/10/21 05:00:46;;;;;;;13.40;7.53;;;15.90;82.50;;;;;;5056168;28;20521;-66
2022/10/21 05:03:11;;;;;;;14.75;7.25;;;15.90;82.60;;;;;;5056040;28;20128;-66
2022/10/21 05:05:37;;;;;;;22.17;7.50;;;15.90;82.60;;;;;;5056274;28;20025;-66
2022/10/21 05:08:03;;;;;;;16.17;7.50;;;15.90;82.60;;;;;;5054603;28;20431;-65
2022/10/21 05:10:31;;;;;;;12.68;7.38;;;15.80;82.50;;;;;;5053062;28;20045;-66
2022/10/21 05:12:57;;;;;;;13.25;6.97;;;15.80;83.00;;;;;;5053158;28;20040;-66
2022/10/21 05:15:24;;;;;;;18.63;7.72;;;15.70;83.70;;;;;;5054813;28;20045;-66
2022/10/21 05:17:51;;;;;;;17.85;7.32;;;15.70;83.80;;;;;;5055779;28;20053;-66
2022/10/21 05:20:18;;;;;;;26.80;7.65;;;15.70;83.90;;;;;;5055653;28;20087;-66
2022/10/21 05:22:44;;;;;;;39.30;8.60;;;15.70;83.90;;;;;;5055351;28;20119;-66
2022/10/21 05:25:09;;;;;;;47.85;8.77;;;15.70;83.60;;;;;;5055706;28;20122;-66
2022/10/21 05:27:35;;;;;;;29.85;7.88;;;15.70;83.40;;;;;;5055638;28;20037;-66
2022/10/21 05:30:01;;;;;;;34.67;9.30;;;15.70;83.20;;;;;;5055053;28;20984;-66
2022/10/21 05:32:27;;;;;;;39.10;7.88;;;15.70;83.30;;;;;;5055185;28;20481;-65
2022/10/21 05:34:52;;;;;;;17.38;7.70;;;15.60;83.30;;;;;;5055160;28;20106;-66
2022/10/21 05:37:18;;;;;;;26.40;8.20;;;15.60;83.50;;;;;;5055118;28;20167;-66
2022/10/21 05:39:44;;;;;;;24.75;8.13;;;15.60;84.00;;;;;;5055004;28;20045;-66
2022/10/21 05:42:09;;;;;;;22.65;7.90;;;15.60;84.30;;;;;;5055218;28;20037;-66
2022/10/21 05:44:35;;;;;;;17.10;8.05;;;15.60;84.30;;;;;;5055133;28;20448;-66
2022/10/21 05:47:01;;;;;;;15.15;7.20;;;15.60;84.40;;;;;;5054699;28;20559;-66
2022/10/21 05:49:26;;;;;;;14.88;7.28;;;15.60;84.40;;;;;;5054788;28;20397;-66
2022/10/21 05:51:52;;;;;;;16.05;7.28;;;15.60;84.40;;;;;;5055158;28;20458;-66
2022/10/21 05:54:18;;;;;;;21.35;7.72;;;15.70;84.50;;;;;;5055214;28;20037;-66
2022/10/21 05:56:43;;;;;;;22.33;8.18;;;15.70;84.40;;;;;;5054936;28;20087;-66
2022/10/21 05:59:10;;;;;;;20.17;7.25;;;15.70;84.40;;;;;;5055048;28;20033;-65
2022/10/21 06:01:35;;;;;;;20.02;8.20;;;15.70;84.20;;;;;;5053054;28;20135;-66
2022/10/21 06:04:01;;;;;;;27.92;8.63;;;15.70;84.20;;;;;;5054542;28;20501;-66
2022/10/21 06:06:27;;;;;;;26.52;7.85;;;15.70;84.10;;;;;;5054030;28;20037;-64
2022/10/21 06:08:52;;;;;;;21.73;8.15;;;15.70;84.40;;;;;;5054630;28;20033;-65
2022/10/21 06:11:18;;;;;;;25.13;8.43;;;15.70;84.40;;;;;;5054321;28;20025;-64
2022/10/21 06:13:45;;;;;;;25.02;9.38;;;15.70;84.30;;;;;;5054429;28;20052;-65
2022/10/21 06:16:12;;;;;;;22.52;8.68;;;15.70;84.30;;;;;;5054613;28;20033;-65
2022/10/21 06:18:38;;;;;;;32.67;8.25;;;15.60;84.70;;;;;;5027403;28;20179;-65
2022/10/21 06:21:04;;;;;;;29.23;8.30;;;15.60;85.00;;;;;;5054199;28;20025;-66
2022/10/21 06:23:30;;;;;;;36.03;9.68;;;15.60;85.40;;;;;;5054059;28;20040;-65
2022/10/21 06:26:02;;;;;;;35.00;10.45;;;15.60;85.30;;;;;;5054168;28;20041;-66
2022/10/21 06:28:30;;;;;;;28.98;10.32;;;15.70;84.60;;;;;;5054180;28;20033;-66
2022/10/21 06:30:56;;;;;;;32.25;10.68;;;15.60;84.20;;;;;;5053899;28;20385;-65
2022/10/21 06:33:23;;;;;;;28.92;10.60;;;15.60;84.50;;;;;;5054195;28;20040;-67
2022/10/21 06:35:48;;;;;;;34.17;10.15;;;15.60;84.90;;;;;;5054394;28;20049;-66
2022/10/21 06:38:15;;;;;;;32.22;11.15;;;15.60;85.10;;;;;;5054327;28;20033;-66
2022/10/21 06:40:41;;;;;;;33.42;10.20;;;15.60;85.10;;;;;;5051802;28;20053;-66
2022/10/21 06:43:07;;;;;;;31.52;10.50;;;15.60;85.30;;;;;;5054527;28;20064;-67
2022/10/21 06:45:33;;;;;;;25.15;10.68;;;15.70;85.20;;;;;;5053921;28;20535;-66
2022/10/21 06:47:59;;;;;;;34.53;9.68;;;15.70;85.50;;;;;;5054332;28;20030;-66
2022/10/21 06:50:24;;;;;;;37.22;10.85;;;15.70;85.40;;;;;;5053827;28;20036;-67
2022/10/21 06:52:50;;;;;;;34.20;10.13;;;15.70;85.50;;;;;;5054014;28;20041;-65
2022/10/21 06:55:17;;;;;;;23.42;9.85;;;15.80;85.80;;;;;;5035908;28;20449;-66
2022/10/21 06:57:43;;;;;;;27.30;9.43;;;15.80;85.90;;;;;;5053859;28;20112;-66
2022/10/21 07:00:10;;;;;;;24.23;9.10;;;15.90;86.10;;;;;;5053067;28;20121;-66
2022/10/21 07:02:35;;;;;;;32.20;10.23;;;16.00;86.30;;;;;;5052879;28;20393;-66
2022/10/21 07:05:01;;;;;;;24.70;9.90;;;16.00;86.80;;;;;;5052844;28;20043;-66
2022/10/21 07:07:27;;;;;;;23.15;9.50;;;16.00;86.80;;;;;;5053085;28;20401;-66
2022/10/21 07:09:56;;;;;;;28.25;9.15;;;16.00;86.50;;;;;;5047004;28;20037;-66
2022/10/21 07:12:23;;;;;;;23.35;8.95;;;16.10;86.30;;;;;;5053622;28;20048;-66
2022/10/21 07:14:48;;;;;;;21.40;8.35;;;16.10;86.30;;;;;;5053205;28;20482;-67
2022/10/21 07:17:15;;;;;;;19.83;8.82;;;16.10;86.30;;;;;;5052614;28;20040;-66
2022/10/21 07:19:41;;;;;;;14.98;7.82;;;16.20;86.00;;;;;;5053439;28;20045;-66
2022/10/21 07:22:06;;;;;;;18.42;8.02;;;16.20;85.80;;;;;;5053333;28;20506;-67
2022/10/21 07:24:32;;;;;;;14.88;7.90;;;16.20;85.30;;;;;;5053156;28;20064;-66
2022/10/21 07:26:58;;;;;;;30.45;9.07;;;16.20;85.40;;;;;;5051873;28;20508;-66
2022/10/21 07:29:24;;;;;;;18.92;7.82;;;16.20;85.30;;;;;;5050719;28;20048;-67
2022/10/21 07:31:49;;;;;;;23.98;9.30;;;16.20;85.30;;;;;;5050247;28;20036;-67
2022/10/21 07:34:15;;;;;;;23.65;8.73;;;16.30;85.40;;;;;;5052180;28;20041;-65
2022/10/21 07:36:43;;;;;;;24.42;9.13;;;16.30;85.40;;;;;;5050440;28;20377;-67
2022/10/21 07:39:12;;;;;;;25.52;8.55;;;16.30;85.40;;;;;;5050388;28;20112;-66
2022/10/21 07:41:45;;;;;;;28.20;9.52;;;16.30;85.40;;;;;;5052260;28;20052;-66
2022/10/21 07:44:12;;;;;;;31.98;9.48;;;16.30;85.50;;;;;;5052996;28;20025;-66
2022/10/21 07:46:39;;;;;;;38.03;9.90;;;16.40;85.80;;;;;;5053089;28;20044;-66
2022/10/21 07:49:05;;;;;;;32.05;8.68;;;16.40;86.00;;;;;;5050790;28;20052;-67
2022/10/21 07:51:30;;;;;;;41.85;11.13;;;16.40;86.00;;;;;;5050247;28;20535;-66
2022/10/21 07:53:57;;;;;;;34.13;9.30;;;16.50;86.10;;;;;;5050278;28;20416;-67
2022/10/21 07:56:32;;;;;;;22.48;8.65;;;16.50;86.20;;;;;;5050556;28;20060;-66
2022/10/21 07:59:00;;;;;;;20.58;9.10;;;16.50;86.10;;;;;;5050179;28;20121;-67
2022/10/21 08:01:26;;;;;;;23.88;9.80;;;16.60;85.90;;;;;;5052470;28;20045;-66
2022/10/21 08:03:54;;;;;;;22.10;9.10;;;16.60;85.70;;;;;;5052965;28;20044;-66
2022/10/21 08:06:22;;;;;;;26.33;9.23;;;16.60;85.70;;;;;;5052505;28;20029;-66
2022/10/21 08:08:47;;;;;;;26.15;9.35;;;16.60;85.80;;;;;;5051891;28;20116;-66
2022/10/21 08:11:21;;;;;;;27.00;8.93;;;16.70;86.00;;;;;;5053169;28;20064;-66
2022/10/21 08:13:47;;;;;;;22.35;8.77;;;16.70;86.30;;;;;;5052868;28;20091;-66
2022/10/21 08:16:12;;;;;;;25.00;8.77;;;16.70;86.30;;;;;;5052632;28;20064;-66
2022/10/21 08:18:38;;;;;;;26.33;8.68;;;16.70;86.10;;;;;;5052495;28;20037;-66
2022/10/21 08:21:04;;;;;;;18.95;7.88;;;16.80;85.80;;;;;;5052916;28;20437;-66
2022/10/21 08:23:30;;;;;;;14.98;7.78;;;16.80;85.60;;;;;;5052907;28;20381;-66
2022/10/21 08:25:57;;;;;;;13.70;7.80;;;16.80;85.50;;;;;;5052940;28;20033;-66
2022/10/21 08:28:25;;;;;;;12.35;7.95;;;16.90;85.40;;;;;;5053313;28;20032;-66
2022/10/21 08:30:50;;;;;;;20.35;8.48;;;16.90;85.50;;;;;;5057094;28;20538;-66
2022/10/21 08:33:16;;;;;;;29.35;8.55;;;16.90;85.20;;;;;;5056603;28;20029;-66
2022/10/21 08:35:43;;;;;;;27.23;8.73;;;17.00;85.30;;;;;;5056813;28;20040;-66
2022/10/21 08:38:09;;;;;;;24.90;9.00;;;17.00;85.30;;;;;;5056751;28;20112;-66
2022/10/21 08:40:45;;;;;;;19.92;8.40;;;17.00;85.20;;;;;;5056486;28;20086;-66
2022/10/21 08:43:24;;;;;;;22.33;8.73;;;17.00;85.10;;;;;;5056407;28;20083;-66
2022/10/21 08:46:17;;;;;;;22.00;8.77;;;17.10;85.00;;;;;;5056413;28;20533;-66
2022/10/21 08:48:55;;;;;;;13.05;7.90;;;17.10;84.90;;;;;;5056711;28;20040;-66
2022/10/21 08:51:45;;;;;;;18.30;9.27;;;17.20;84.90;;;;;;5056515;28;20033;-66
2022/10/21 08:54:26;;;;;;;19.13;8.98;;;17.20;85.20;;;;;;5056228;28;20397;-66
2022/10/21 08:56:57;;;;;;;22.30;8.43;;;17.20;85.00;;;;;;5056583;28;20600;-66
2022/10/21 08:59:25;;;;;;;29.77;8.80;;;17.30;84.60;;;;;;5056251;28;20037;-66
2022/10/21 09:02:29;;;;;;;15.10;8.13;;;17.30;84.90;;;;;;5055684;28;20048;-67
2022/10/21 09:05:09;;;;;;;15.85;7.97;;;17.30;84.80;;;;;;5056325;28;20041;-66
2022/10/21 09:07:50;;;;;;;21.20;9.13;;;17.40;84.70;;;;;;5055858;28;20037;-67
2022/10/21 09:10:45;;;;;;;22.63;8.43;;;17.40;84.60;;;;;;5055819;28;20497;-65
2022/10/21 09:13:29;;;;;;;18.38;8.70;;;17.40;84.20;;;;;;5055774;28;20037;-66
2022/10/21 09:16:18;;;;;;;13.98;8.25;;;17.50;84.10;;;;;;5055813;28;20033;-65
2022/10/21 09:19:02;;;;;;;15.45;8.57;;;17.50;84.10;;;;;;5055516;28;20048;-65
2022/10/21 09:22:01;;;;;;;22.27;9.30;;;17.60;84.60;;;;;;5055765;28;20388;-65
2022/10/21 09:24:34;;;;;;;19.60;8.80;;;17.70;84.40;;;;;;5024686;28;20033;-65
2022/10/21 09:27:03;;;;;;;15.68;8.93;;;17.80;84.00;;;;;;5055515;28;20116;-65
2022/10/21 09:29:35;;;;;;;17.92;9.13;;;17.90;84.10;;;;;;5055475;28;20033;-64
2022/10/21 09:32:14;;;;;;;20.98;8.63;;;18.00;84.00;;;;;;5055795;28;20095;-65
2022/10/21 09:34:54;;;;;;;14.27;7.95;;;18.00;83.70;;;;;;5055747;28;20053;-65
2022/10/21 09:37:57;;;;;;;18.98;7.85;;;18.10;83.50;;;;;;5055310;28;20029;-65
2022/10/21 09:40:27;;;;;;;20.33;8.43;;;18.20;83.60;;;;;;5051677;28;20379;-65
2022/10/21 09:42:57;;;;;;;11.18;8.57;;;18.20;83.60;;;;;;5055496;28;20045;-65
2022/10/21 09:45:31;;;;;;;18.38;8.07;;;18.30;83.40;;;;;;5055621;28;20033;-65
2022/10/21 09:48:02;;;;;;;12.15;7.68;;;18.30;84.00;;;;;;5055293;28;20036;-65
2022/10/21 09:50:28;;;;;;;13.88;7.65;;;18.40;83.40;;;;;;5055200;28;20079;-65
2022/10/21 09:53:03;;;;;;;12.93;7.85;;;18.50;82.80;;;;;;5054957;28;20478;-65
2022/10/21 09:55:30;;;;;;;14.13;7.68;;;18.50;83.20;;;;;;5055084;28;20045;-65
2022/10/21 09:58:03;;;;;;;14.55;7.32;;;18.60;83.50;;;;;;5054997;28;20397;-65
2022/10/21 10:00:58;;;;;;;;;;;18.70;83.60;;;;;;5055430;28;20036;-65
2022/10/21 10:03:40;;;;;;;12.00;7.10;;;18.70;83.00;;;;;;5045795;28;19908;-65
2022/10/21 10:06:05;;;;;;;13.65;8.57;;;18.80;81.60;;;;;;5055020;28;20025;-65
2022/10/21 10:08:43;;;;;;;14.18;7.93;;;18.80;81.70;;;;;;5055128;28;20509;-65
2022/10/21 10:11:09;;;;;;;14.70;7.88;;;18.90;81.60;;;;;;5054822;28;20043;-65
2022/10/21 10:13:36;;;;;;;13.50;7.75;;;18.90;81.30;;;;;;5055161;28;20037;-66
2022/10/21 10:16:25;;;;;;;12.05;7.90;;;18.90;81.30;;;;;;5054730;28;20045;-66
2022/10/21 10:19:10;;;;;;;15.65;7.30;;;18.90;81.60;;;;;;5036645;28;20041;-63
2022/10/21 10:21:36;;;;;;;12.52;7.35;;;19.00;81.70;;;;;;5054641;28;20039;-66
2022/10/21 10:24:04;;;;;;;15.32;7.28;;;19.00;81.70;;;;;;5054589;28;20025;-65
2022/10/21 10:26:33;;;;;;;15.50;7.80;;;19.10;82.50;;;;;;5054495;28;20044;-64
2022/10/21 10:29:09;;;;;;;9.90;6.57;;;19.10;82.50;;;;;;5054451;28;20025;-66
2022/10/21 10:31:35;;;;;;;9.80;6.15;;;19.20;82.80;;;;;;5054467;28;20040;-65
2022/10/21 10:34:27;;;;;;;10.18;6.70;;;19.20;82.90;;;;;;5054137;28;20123;-66
2022/10/21 10:37:06;;;;;;;12.43;7.32;;;19.30;82.70;;;;;;5054502;28;20035;-64
2022/10/21 10:39:35;;;;;;;12.80;7.30;;;19.30;83.10;;;;;;5054237;28;20056;-64
2022/10/21 10:42:02;;;;;;;11.35;6.53;;;19.40;82.70;;;;;;5054149;28;20115;-65
2022/10/21 10:44:38;;;;;;;16.00;7.20;;;19.40;83.10;;;;;;5054222;28;20123;-65
2022/10/21 10:47:07;;;;;;;10.45;7.65;;;19.40;82.20;;;;;;5054186;28;20040;-63
2022/10/21 10:49:40;;;;;;;8.35;6.80;;;19.40;82.30;;;;;;5054318;28;20497;-64
2022/10/21 10:52:08;;;;;;;13.80;6.63;;;19.50;82.50;;;;;;5054055;28;20032;-66
2022/10/21 10:54:39;;;;;;;12.23;6.15;;;19.50;82.60;;;;;;5053920;28;20120;-65
2022/10/21 10:57:13;;;;;;;10.35;5.55;;;19.50;82.30;;;;;;5053298;28;20109;-65
2022/10/21 10:59:57;;;;;;;7.65;6.18;;;19.50;82.60;;;;;;5053811;28;20108;-65
2022/10/21 11:02:56;;;;;;;15.10;6.35;;;19.50;82.40;;;;;;5053810;28;20033;-65
2022/10/21 11:05:32;;;;;;;12.95;6.65;;;19.50;83.60;;;;;;5053841;28;20045;-65
2022/10/21 11:08:12;;;;;;;9.65;6.10;;;19.60;83.20;;;;;;5053769;28;20111;-64
2022/10/21 11:10:42;;;;;;;11.68;5.85;;;19.60;82.90;;;;;;5053612;28;20029;-65
2022/10/21 11:13:16;;;;;;;9.57;5.72;;;19.60;83.10;;;;;;5052312;28;20037;-65
2022/10/21 11:16:16;;;;;;;12.48;6.28;;;19.80;84.90;;;;;;5050855;28;20045;-65
2022/10/21 11:19:00;;;;;;;7.90;5.40;;;19.70;83.70;;;;;;4984141;28;20032;-65
2022/10/21 11:21:44;;;;;;;15.57;5.63;;;19.70;83.30;;;;;;5053534;28;20036;-65
2022/10/21 11:24:24;;;;;;;11.15;5.75;;;19.80;82.80;;;;;;5053499;28;20065;-65
2022/10/21 11:27:23;;;;;;;7.88;5.70;;;19.80;82.50;;;;;;5053649;28;20397;-65
2022/10/21 11:30:08;;;;;;;8.80;5.93;;;19.80;83.00;;;;;;5053521;28;20036;-65
2022/10/21 11:32:37;;;;;;;11.50;5.22;;;19.80;83.70;;;;;;5053361;28;20112;-65
2022/10/21 11:35:21;;;;;;;10.82;5.10;;;19.90;83.00;;;;;;5053544;28;20474;-65
2022/10/21 11:38:24;;;;;;;10.90;5.35;;;19.90;82.40;;;;;;5052357;28;20029;-66
2022/10/21 11:40:58;;;;;;;6.65;5.20;;;19.90;82.50;;;;;;5050146;28;20051;-66
2022/10/21 11:43:26;;;;;;;12.50;5.35;;;19.90;82.70;;;;;;5050364;28;20052;-65
2022/10/21 11:46:16;;;;;;;6.85;5.15;;;19.90;83.30;;;;;;5052631;28;20083;-65
2022/10/21 11:49:07;;;;;;;8.68;5.22;;;20.00;82.90;;;;;;5053191;28;20094;-65
2022/10/21 11:51:46;;;;;;;8.15;6.07;;;20.00;84.40;;;;;;5052740;28;20033;-65
2022/10/21 11:54:39;;;;;;;11.10;5.72;;;20.00;84.50;;;;;;5052570;28;20045;-65
2022/10/21 11:57:34;;;;;;;7.40;5.50;;;20.00;84.90;;;;;;5052844;28;20069;-65
2022/10/21 12:00:09;;;;;;;9.23;4.97;;;20.00;85.60;;;;;;5050631;28;20065;-65
2022/10/21 12:02:42;;;;;;;10.50;6.07;;;19.90;81.60;;;;;;5052502;28;20036;-66
2022/10/21 12:05:27;;;;;;;15.88;5.22;;;19.90;81.80;;;;;;5052086;28;20036;-64
2022/10/21 12:08:21;;;;;;;7.18;4.30;;;19.90;82.80;;;;;;5052675;28;20033;-65
2022/10/21 12:11:02;;;;;;;5.15;3.92;;;19.90;82.70;;;;;;5052873;28;20100;-66
2022/10/21 12:13:39;;;;;;;8.32;4.32;;;19.90;82.00;;;;;;5052914;28;20085;-65
2022/10/21 12:16:13;;;;;;;8.38;3.78;;;19.90;82.10;;;;;;5052588;28;20048;-65
2022/10/21 12:18:52;;;;;;;8.27;3.92;;;19.90;81.60;;;;;;5052834;28;20040;-65
2022/10/21 12:21:22;;;;;;;6.82;4.00;;;19.90;81.30;;;;;;5052754;28;20102;-65
2022/10/21 12:24:14;;;;;;;11.45;4.95;;;19.90;80.70;;;;;;5052523;28;20112;-65
2022/10/21 12:26:45;;;;;;;12.35;4.03;;;19.80;80.90;;;;;;5015027;28;20068;-66
2022/10/21 12:29:33;;;;;;;8.00;4.20;;;19.80;80.50;;;;;;5052970;28;20037;-65
2022/10/21 12:32:09;;;;;;;7.63;3.95;;;19.80;81.00;;;;;;5052862;28;20508;-65
2022/10/21 12:34:35;;;;;;;11.27;4.78;;;19.80;81.20;;;;;;5052482;28;20060;-65
2022/10/21 12:37:01;;;;;;;10.07;3.80;;;19.70;81.40;;;;;;5052427;28;20029;-65
2022/10/21 12:39:32;;;;;;;10.68;4.72;;;19.70;81.60;;;;;;5052711;28;20041;-64
2022/10/21 12:42:18;;;;;;;7.32;4.65;;;19.70;82.30;;;;;;5052692;28;20422;-65
2022/10/21 12:44:47;;;;;;;13.18;4.63;;;19.70;82.50;;;;;;5052688;28;20037;-65
2022/10/21 12:47:35;;;;;;;10.70;4.50;;;19.60;82.40;;;;;;5052430;28;20494;-65
2022/10/21 12:50:13;;;;;;;6.65;4.10;;;19.60;83.00;;;;;;5052483;28;20037;-66
2022/10/21 12:52:40;;;;;;;13.70;4.97;;;19.60;83.20;;;;;;5052518;28;20068;-65
2022/10/21 12:55:24;;;;;;;9.43;4.13;;;19.70;83.50;;;;;;5052436;28;20064;-65
2022/10/21 12:58:03;;;;;;;11.60;4.53;;;19.70;83.40;;;;;;5052351;28;20029;-65
2022/10/21 13:00:29;;;;;;;9.05;4.18;;;19.60;83.50;;;;;;5052364;28;20478;-65